Time;durP1;ratioP1;P1;durP2;ratioP2;P2;SDS_P1;SDS_P2;PMS_P1;PMS_P2;Temp;Humidity;BMP_temperature;BMP_pressure;BME280_temperature;BME280_humidity;BME280_pressure;Samples;Min_cycle;Max_cycle;Signal;HPM_P1;HPM_P2
2023/03/17 06:44:41;;;;;;;9.38;3.60;;;;;;;;;;7364408;19;20512;-79
2023/03/17 06:47:06;;;;;;;9.15;3.33;;;;;;;;;;7366442;19;20383;-79
2023/03/17 06:49:31;;;;;;;9.18;3.55;;;;;;;;;;7360469;19;20067;-79
2023/03/17 06:51:56;;;;;;;8.48;3.47;;;;;;;;;;7363292;19;20110;-79
2023/03/17 06:54:24;;;;;;;9.18;3.40;;;;;;;;;;7338930;19;20263;-79
2023/03/17 06:56:49;;;;;;;9.20;2.75;;;;;;;;;;7356761;19;20032;-79
2023/03/17 06:59:14;;;;;;;9.15;3.08;;;;;;;;;;7354150;19;20014;-79
2023/03/17 07:01:40;;;;;;;7.30;3.30;;;;;;;;;;7354892;19;20601;-79
2023/03/17 07:04:05;;;;;;;8.33;3.00;;;;;;;;;;7349676;19;20342;-79
2023/03/17 07:06:31;;;;;;;6.88;2.78;;;;;;;;;;7341063;19;20375;-80
2023/03/17 07:08:56;;;;;;;11.52;3.45;;;;;;;;;;7358670;19;20132;-79
2023/03/17 07:11:22;;;;;;;7.00;2.97;;;;;;;;;;7344395;19;20025;-80
2023/03/17 07:13:47;;;;;;;8.55;3.08;;;;;;;;;;7358418;19;20039;-79
2023/03/17 07:16:14;;;;;;;6.53;2.80;;;;;;;;;;7354250;19;20007;-78
2023/03/17 07:18:39;;;;;;;10.23;3.55;;;;;;;;;;7370620;19;20311;-78
2023/03/17 07:21:04;;;;;;;8.98;2.90;;;;;;;;;;7363871;19;20022;-78
2023/03/17 07:23:29;;;;;;;9.50;3.13;;;;;;;;;;7355399;19;20010;-79
2023/03/17 07:25:56;;;;;;;9.73;2.70;;;;;;;;;;7359220;19;20014;-79
2023/03/17 07:28:21;;;;;;;6.88;3.10;;;;;;;;;;7360514;19;20294;-79
2023/03/17 07:30:47;;;;;;;7.63;2.90;;;;;;;;;;7364858;19;20015;-79
2023/03/17 07:33:12;;;;;;;8.50;3.22;;;;;;;;;;7347664;19;20044;-82
2023/03/17 07:35:38;;;;;;;8.10;3.25;;;;;;;;;;7353692;19;20668;-79
2023/03/17 07:38:04;;;;;;;8.27;2.50;;;;;;;;;;7367662;19;19998;-78
2023/03/17 07:40:29;;;;;;;9.00;2.88;;;;;;;;;;7369752;19;20015;-79
2023/03/17 07:42:55;;;;;;;6.65;2.88;;;;;;;;;;7374892;19;20330;-79
2023/03/17 07:45:20;;;;;;;9.77;2.88;;;;;;;;;;7373462;19;20078;-79
2023/03/17 07:47:45;;;;;;;7.47;2.60;;;;;;;;;;7373070;19;20023;-78
2023/03/17 07:50:10;;;;;;;7.28;2.70;;;;;;;;;;7375641;19;20275;-79
2023/03/17 07:52:35;;;;;;;8.07;3.23;;;;;;;;;;7372435;19;20351;-78
2023/03/17 07:55:01;;;;;;;9.00;2.70;;;;;;;;;;7373862;19;20599;-82
2023/03/17 07:57:27;;;;;;;6.70;2.70;;;;;;;;;;7375836;19;20032;-78
2023/03/17 07:59:52;;;;;;;8.80;3.05;;;;;;;;;;7375638;19;20007;-78
2023/03/17 08:02:18;;;;;;;8.07;2.80;;;;;;;;;;7373963;19;20013;-79
2023/03/17 08:04:43;;;;;;;19.85;3.30;;;;;;;;;;7372167;19;20656;-78
2023/03/17 08:07:09;;;;;;;6.97;2.75;;;;;;;;;;7376228;19;20393;-78
2023/03/17 08:09:34;;;;;;;8.95;3.08;;;;;;;;;;7372743;19;20017;-78
2023/03/17 08:12:00;;;;;;;6.75;2.83;;;;;;;;;;7376461;19;20115;-79
2023/03/17 08:14:25;;;;;;;8.88;3.15;;;;;;;;;;7373677;19;20024;-78
2023/03/17 08:16:51;;;;;;;7.40;2.83;;;;;;;;;;7377882;19;20039;-78
2023/03/17 08:19:16;;;;;;;9.52;3.08;;;;;;;;;;7373152;19;20354;-78
2023/03/17 08:21:41;;;;;;;9.37;2.33;;;;;;;;;;7376962;19;20103;-77
2023/03/17 08:24:06;;;;;;;9.03;3.20;;;;;;;;;;7376560;19;20494;-79
2023/03/17 08:26:32;;;;;;;10.25;3.08;;;;;;;;;;7372752;19;20279;-79
2023/03/17 08:28:57;;;;;;;7.72;2.97;;;;;;;;;;7376570;19;20013;-78
2023/03/17 08:31:22;;;;;;;4.72;2.13;;;;;;;;;;7372461;19;20007;-78
2023/03/17 08:33:49;;;;;;;7.72;2.47;;;;;;;;;;7377537;19;20323;-78
2023/03/17 08:36:15;;;;;;;5.65;2.58;;;;;;;;;;7369611;19;20006;-82
2023/03/17 08:38:41;;;;;;;9.68;2.45;;;;;;;;;;7376794;19;20021;-77
2023/03/17 08:41:07;;;;;;;6.93;2.38;;;;;;;;;;7372586;19;20453;-77
2023/03/17 08:43:33;;;;;;;6.75;2.60;;;;;;;;;;7371939;19;20055;-80
2023/03/17 08:46:04;;;;;;;7.72;2.35;;;;;;;;;;7376887;19;20037;-78
2023/03/17 08:48:29;;;;;;;7.05;2.10;;;;;;;;;;7373435;19;20015;-77
2023/03/17 08:50:55;;;;;;;7.18;2.42;;;;;;;;;;7375751;19;20018;-80
2023/03/17 08:53:20;;;;;;;6.25;2.33;;;;;;;;;;7373473;19;20007;-78
2023/03/17 08:55:45;;;;;;;5.78;2.38;;;;;;;;;;7372595;19;20019;-78
2023/03/17 08:58:11;;;;;;;8.68;2.17;;;;;;;;;;7375123;19;20059;-78
2023/03/17 09:00:36;;;;;;;11.43;3.20;;;;;;;;;;7374232;19;20271;-78
2023/03/17 09:03:02;;;;;;;6.70;2.17;;;;;;;;;;7372695;19;20599;-78
2023/03/17 09:05:27;;;;;;;8.50;2.40;;;;;;;;;;7370240;19;20287;-80
2023/03/17 09:07:52;;;;;;;8.07;2.73;;;;;;;;;;7374480;19;20444;-78
2023/03/17 09:10:21;;;;;;;6.50;2.30;;;;;;;;;;7367961;19;20287;-79
2023/03/17 09:12:47;;;;;;;5.72;2.10;;;;;;;;;;7374982;19;20037;-79
2023/03/17 09:15:12;;;;;;;9.70;2.88;;;;;;;;;;7374261;19;20015;-80
2023/03/17 09:17:37;;;;;;;9.20;2.75;;;;;;;;;;7371661;19;20080;-81
2023/03/17 09:20:03;;;;;;;11.07;3.17;;;;;;;;;;7374268;19;20440;-83
2023/03/17 09:22:30;;;;;;;5.97;2.30;;;;;;;;;;7370943;19;20382;-80
2023/03/17 09:24:57;;;;;;;5.85;1.98;;;;;;;;;;7379346;19;20003;-80
2023/03/17 09:27:22;;;;;;;8.82;2.70;;;;;;;;;;7377631;19;20021;-80
2023/03/17 09:29:47;;;;;;;8.63;2.72;;;;;;;;;;7381254;19;20095;-81
2023/03/17 09:32:12;;;;;;;7.80;2.05;;;;;;;;;;7380280;19;20006;-78
2023/03/17 09:34:37;;;;;;;7.70;2.30;;;;;;;;;;7380384;19;20475;-80
2023/03/17 09:37:03;;;;;;;6.20;2.33;;;;;;;;;;7384033;19;20009;-78
2023/03/17 09:39:28;;;;;;;8.07;2.20;;;;;;;;;;7379590;19;20589;-78
2023/03/17 09:42:14;;;;;;;7.18;2.88;;;;;;;;;;7383446;19;20272;-77
2023/03/17 09:44:46;;;;;;;5.30;2.08;;;;;;;;;;7379900;19;20406;-78
2023/03/17 09:47:36;;;;;;;7.05;2.28;;;;;;;;;;7381587;19;20026;-79
2023/03/17 09:50:03;;;;;;;6.07;2.30;;;;;;;;;;7379080;19;20042;-79
2023/03/17 09:52:30;;;;;;;9.85;2.38;;;;;;;;;;7374313;19;20025;-79
2023/03/17 09:54:55;;;;;;;6.75;2.20;;;;;;;;;;7377101;19;20019;-81
2023/03/17 09:57:25;;;;;;;6.53;2.10;;;;;;;;;;7378581;19;20006;-80
2023/03/17 09:59:54;;;;;;;6.90;1.92;;;;;;;;;;7381390;19;20036;-79
2023/03/17 10:02:29;;;;;;;9.15;2.30;;;;;;;;;;7373866;19;20026;-82
2023/03/17 10:04:54;;;;;;;6.20;1.88;;;;;;;;;;7379092;19;20464;-81
2023/03/17 10:07:24;;;;;;;8.73;2.08;;;;;;;;;;7378679;19;20075;-80
2023/03/17 10:09:55;;;;;;;6.70;1.80;;;;;;;;;;7377288;19;20475;-80
2023/03/17 10:12:31;;;;;;;8.75;2.10;;;;;;;;;;7377245;19;20108;-82
2023/03/17 10:15:00;;;;;;;5.25;2.10;;;;;;;;;;7380183;19;20324;-81
2023/03/17 10:17:30;;;;;;;9.07;2.60;;;;;;;;;;7379998;19;19998;-81
2023/03/17 10:19:59;;;;;;;7.07;2.08;;;;;;;;;;7378200;19;20018;-82
2023/03/17 10:22:29;;;;;;;11.63;2.50;;;;;;;;;;7374729;19;20333;-81
2023/03/17 10:24:58;;;;;;;8.90;2.45;;;;;;;;;;7377975;19;20015;-79
2023/03/17 10:27:23;;;;;;;8.55;2.50;;;;;;;;;;7377481;19;20017;-82
2023/03/17 10:29:49;;;;;;;11.73;2.27;;;;;;;;;;7377734;19;20010;-81
2023/03/17 10:32:14;;;;;;;6.18;2.20;;;;;;;;;;7375980;19;20300;-79
2023/03/17 10:34:40;;;;;;;10.63;2.40;;;;;;;;;;7375107;19;20006;-80
2023/03/17 10:37:13;;;;;;;9.20;2.58;;;;;;;;;;7377991;19;20382;-79
2023/03/17 10:39:50;;;;;;;10.15;2.97;;;;;;;;;;7375625;19;20019;-81
2023/03/17 10:42:21;;;;;;;9.93;2.53;;;;;;;;;;7376262;19;20099;-81
2023/03/17 10:44:52;;;;;;;11.13;3.05;;;;;;;;;;7369547;19;20233;-79
2023/03/17 10:47:38;;;;;;;8.50;2.50;;;;;;;;;;7375515;19;20310;-79
2023/03/17 10:50:04;;;;;;;7.70;2.70;;;;;;;;;;7374775;19;20127;-80
2023/03/17 10:52:31;;;;;;;9.10;2.80;;;;;;;;;;7375663;19;20010;-79
2023/03/17 10:55:00;;;;;;;6.38;2.70;;;;;;;;;;7373100;19;20010;-79
2023/03/17 10:57:26;;;;;;;8.85;2.95;;;;;;;;;;7373765;19;20119;-81
2023/03/17 10:59:52;;;;;;;7.82;2.78;;;;;;;;;;7377900;19;20024;-79
2023/03/17 11:02:24;;;;;;;11.80;2.67;;;;;;;;;;7373961;19;20007;-79
2023/03/17 11:04:52;;;;;;;7.25;2.47;;;;;;;;;;7367079;19;20568;-81
2023/03/17 11:07:19;;;;;;;10.00;2.65;;;;;;;;;;7377973;19;20378;-79
2023/03/17 11:09:49;;;;;;;5.57;2.30;;;;;;;;;;7371865;19;20040;-80
2023/03/17 11:12:20;;;;;;;11.20;2.95;;;;;;;;;;7376237;19;20128;-79
2023/03/17 11:14:47;;;;;;;10.40;2.53;;;;;;;;;;7376288;19;20145;-79
2023/03/17 11:17:15;;;;;;;9.30;2.60;;;;;;;;;;7380090;19;20463;-80
2023/03/17 11:19:42;;;;;;;6.35;2.45;;;;;;;;;;7372761;19;20010;-80
2023/03/17 11:22:27;;;;;;;8.10;2.33;;;;;;;;;;7376129;19;20090;-82
2023/03/17 11:25:08;;;;;;;8.30;2.35;;;;;;;;;;7376438;19;20021;-80
2023/03/17 11:27:45;;;;;;;6.63;2.15;;;;;;;;;;7376080;19;20006;-80
2023/03/17 11:30:16;;;;;;;11.95;2.20;;;;;;;;;;7374980;19;20006;-80
2023/03/17 11:32:50;;;;;;;5.40;1.95;;;;;;;;;;7373581;19;20023;-79
2023/03/17 11:35:22;;;;;;;7.20;2.17;;;;;;;;;;7374326;19;20036;-82
2023/03/17 11:37:58;;;;;;;8.60;2.45;;;;;;;;;;7376678;19;20036;-79
2023/03/17 11:40:30;;;;;;;6.07;2.42;;;;;;;;;;7373188;19;20306;-79
2023/03/17 11:43:14;;;;;;;8.25;2.75;;;;;;;;;;7378058;19;20379;-79
2023/03/17 11:45:48;;;;;;;10.88;3.45;;;;;;;;;;7374885;19;20376;-80
2023/03/17 11:48:30;;;;;;;5.65;2.40;;;;;;;;;;7377503;19;20358;-79
2023/03/17 11:51:02;;;;;;;12.30;2.80;;;;;;;;;;7376691;19;20070;-79
2023/03/17 11:53:30;;;;;;;6.07;2.80;;;;;;;;;;7371169;19;20565;-80
2023/03/17 11:55:56;;;;;;;9.48;2.85;;;;;;;;;;7374492;19;20010;-81
2023/03/17 11:58:32;;;;;;;7.90;2.70;;;;;;;;;;7377256;19;20040;-81
2023/03/17 12:00:59;;;;;;;7.97;2.28;;;;;;;;;;7375577;19;20030;-79
2023/03/17 12:03:44;;;;;;;11.13;2.97;;;;;;;;;;7372332;19;20014;-80
2023/03/17 12:06:14;;;;;;;7.55;2.63;;;;;;;;;;7373491;19;20026;-80
2023/03/17 12:08:45;;;;;;;8.80;2.67;;;;;;;;;;7364776;19;20056;-83
2023/03/17 12:11:15;;;;;;;8.63;2.83;;;;;;;;;;7361143;19;20034;-79
2023/03/17 12:13:45;;;;;;;8.18;2.40;;;;;;;;;;7366670;19;20003;-80
2023/03/17 12:16:21;;;;;;;6.70;2.55;;;;;;;;;;7372844;19;20105;-80
2023/03/17 12:18:56;;;;;;;11.10;2.88;;;;;;;;;;7371472;19;20008;-79
2023/03/17 12:21:40;;;;;;;8.18;2.17;;;;;;;;;;7371484;19;20066;-80
2023/03/17 12:24:25;;;;;;;7.72;2.65;;;;;;;;;;7373580;19;20007;-79
2023/03/17 12:26:56;;;;;;;10.23;2.50;;;;;;;;;;7369771;19;20079;-82
2023/03/17 12:29:48;;;;;;;8.65;2.42;;;;;;;;;;7371337;19;20767;-79
2023/03/17 12:32:25;;;;;;;8.60;2.65;;;;;;;;;;7368068;19;20028;-80
2023/03/17 12:34:52;;;;;;;7.28;2.60;;;;;;;;;;7371211;19;20007;-81
2023/03/17 12:37:18;;;;;;;7.75;2.95;;;;;;;;;;7373483;19;20017;-80
2023/03/17 12:39:49;;;;;;;7.07;2.53;;;;;;;;;;7365261;19;20010;-82
2023/03/17 12:42:23;;;;;;;8.40;2.78;;;;;;;;;;7372674;19;20287;-81
2023/03/17 12:44:48;;;;;;;7.80;2.67;;;;;;;;;;7370888;19;20007;-79
2023/03/17 12:47:32;;;;;;;8.60;2.60;;;;;;;;;;7373636;19;20027;-80
2023/03/17 12:49:57;;;;;;;16.25;2.92;;;;;;;;;;7369579;19;20613;-79
2023/03/17 12:52:41;;;;;;;9.68;2.85;;;;;;;;;;7373261;19;20022;-82
2023/03/17 12:55:10;;;;;;;7.65;2.60;;;;;;;;;;7371221;19;20025;-80
2023/03/17 12:57:38;;;;;;;10.23;2.60;;;;;;;;;;7379149;19;20018;-81
2023/03/17 13:00:06;;;;;;;7.45;2.53;;;;;;;;;;7382146;19;20078;-79
2023/03/17 13:02:35;;;;;;;9.35;2.90;;;;;;;;;;7377589;19;20050;-81
2023/03/17 13:05:04;;;;;;;12.50;3.10;;;;;;;;;;7379102;19;20013;-80
2023/03/17 13:07:31;;;;;;;10.30;3.00;;;;;;;;;;7368955;19;20113;-79
2023/03/17 13:09:59;;;;;;;6.68;2.58;;;;;;;;;;7378453;19;20031;-79
2023/03/17 13:12:43;;;;;;;9.05;2.65;;;;;;;;;;7377825;19;20042;-82
2023/03/17 13:15:27;;;;;;;10.63;2.70;;;;;;;;;;7371146;19;20003;-79
2023/03/17 13:18:11;;;;;;;7.88;2.30;;;;;;;;;;7375292;19;20013;-79
2023/03/17 13:20:37;;;;;;;10.95;2.88;;;;;;;;;;7377419;19;20012;-79
2023/03/17 13:23:09;;;;;;;9.05;2.70;;;;;;;;;;7379902;19;20014;-79
2023/03/17 13:25:37;;;;;;;8.27;2.63;;;;;;;;;;7372875;19;20393;-78
2023/03/17 13:28:11;;;;;;;8.38;2.45;;;;;;;;;;7381114;19;20082;-79
2023/03/17 13:30:36;;;;;;;8.75;2.20;;;;;;;;;;7374527;19;20091;-78
2023/03/17 13:33:08;;;;;;;9.43;2.15;;;;;;;;;;7379033;19;20086;-79
2023/03/17 13:35:52;;;;;;;8.50;2.30;;;;;;;;;;7369050;19;20042;-79
2023/03/17 13:38:36;;;;;;;8.40;2.75;;;;;;;;;;7371874;19;20070;-82
2023/03/17 13:41:12;;;;;;;13.25;2.83;;;;;;;;;;7376168;19;20103;-79
2023/03/17 13:43:48;;;;;;;5.25;2.20;;;;;;;;;;7375427;19;20076;-80
2023/03/17 13:46:21;;;;;;;8.13;2.40;;;;;;;;;;7377872;19;20042;-80
2023/03/17 13:48:47;;;;;;;6.67;2.00;;;;;;;;;;7376371;19;20038;-78
2023/03/17 13:51:21;;;;;;;7.38;2.40;;;;;;;;;;7376558;19;20125;-78
2023/03/17 13:53:49;;;;;;;7.25;2.00;;;;;;;;;;7375726;19;20132;-78
2023/03/17 13:56:17;;;;;;;7.22;2.58;;;;;;;;;;7374164;19;20010;-79
2023/03/17 13:58:48;;;;;;;8.57;2.38;;;;;;;;;;7375518;19;20020;-78
2023/03/17 14:01:14;;;;;;;6.82;2.53;;;;;;;;;;7376061;19;20006;-81
2023/03/17 14:03:42;;;;;;;11.52;3.83;;;;;;;;;;7375007;19;20019;-78
2023/03/17 14:06:10;;;;;;;10.20;2.70;;;;;;;;;;7375534;19;20006;-78
2023/03/17 14:08:37;;;;;;;10.57;2.70;;;;;;;;;;7377190;19;20619;-78
2023/03/17 14:11:05;;;;;;;9.40;2.83;;;;;;;;;;7380164;19;20011;-79
2023/03/17 14:13:42;;;;;;;7.65;2.50;;;;;;;;;;7377136;19;20075;-79
2023/03/17 14:16:16;;;;;;;7.60;2.90;;;;;;;;;;7379022;19;20010;-79
2023/03/17 14:18:48;;;;;;;8.98;2.47;;;;;;;;;;7375131;19;20014;-83
2023/03/17 14:21:24;;;;;;;9.45;2.75;;;;;;;;;;7379889;19;20010;-80
2023/03/17 14:23:56;;;;;;;11.10;3.40;;;;;;;;;;7373949;19;20477;-78
2023/03/17 14:26:25;;;;;;;9.00;3.03;;;;;;;;;;7375112;19;20812;-78
2023/03/17 14:28:50;;;;;;;10.20;2.40;;;;;;;;;;7375055;19;20039;-78
2023/03/17 14:31:19;;;;;;;7.50;2.35;;;;;;;;;;7377596;19;20007;-79
2023/03/17 14:33:44;;;;;;;9.43;2.35;;;;;;;;;;7377855;19;20173;-80
2023/03/17 14:36:11;;;;;;;10.02;2.33;;;;;;;;;;7377191;19;20155;-79
2023/03/17 14:38:37;;;;;;;7.50;2.67;;;;;;;;;;7379173;19;20025;-79
2023/03/17 14:41:16;;;;;;;10.88;2.40;;;;;;;;;;7378602;19;20017;-78
2023/03/17 14:43:42;;;;;;;11.60;3.03;;;;;;;;;;7377371;19;20010;-78
2023/03/17 14:46:29;;;;;;;11.60;4.00;;;;;;;;;;7380756;19;20006;-79
2023/03/17 14:48:59;;;;;;;8.82;3.00;;;;;;;;;;7364299;19;21227;-78
2023/03/17 14:51:26;;;;;;;13.50;3.25;;;;;;;;;;7380615;19;20014;-80
2023/03/17 14:53:52;;;;;;;14.32;3.00;;;;;;;;;;7378659;19;20027;-80
2023/03/17 14:56:28;;;;;;;9.52;3.00;;;;;;;;;;7378733;19;20025;-80
2023/03/17 14:58:53;;;;;;;10.60;3.38;;;;;;;;;;7377587;19;20378;-79
2023/03/17 15:01:18;;;;;;;8.10;2.97;;;;;;;;;;7378361;19;20015;-80
2023/03/17 15:03:55;;;;;;;10.20;3.10;;;;;;;;;;7376248;19;20267;-80
2023/03/17 15:06:29;;;;;;;11.00;2.58;;;;;;;;;;7378626;19;20157;-80
2023/03/17 15:09:01;;;;;;;10.55;3.17;;;;;;;;;;7373675;19;20074;-80
2023/03/17 15:11:35;;;;;;;14.90;3.65;;;;;;;;;;7377075;19;20010;-79
2023/03/17 15:14:11;;;;;;;12.30;3.88;;;;;;;;;;7378475;19;20023;-79
2023/03/17 15:16:37;;;;;;;9.68;3.22;;;;;;;;;;7378016;19;20365;-80
2023/03/17 15:19:17;;;;;;;13.82;2.42;;;;;;;;;;7375149;19;20055;-81
2023/03/17 15:21:42;;;;;;;9.20;2.58;;;;;;;;;;7376605;19;20006;-81
2023/03/17 15:24:26;;;;;;;8.48;2.03;;;;;;;;;;7377939;19;20365;-83
2023/03/17 15:26:59;;;;;;;9.93;2.03;;;;;;;;;;7377016;19;20013;-79
2023/03/17 15:29:24;;;;;;;9.93;2.30;;;;;;;;;;7368993;19;20012;-80
2023/03/17 15:31:49;;;;;;;8.13;2.08;;;;;;;;;;7363686;19;20070;-81
2023/03/17 15:34:15;;;;;;;7.45;2.10;;;;;;;;;;7365148;19;19999;-81
2023/03/17 15:36:42;;;;;;;5.38;1.65;;;;;;;;;;7375139;19;20460;-80
2023/03/17 15:39:08;;;;;;;10.73;2.15;;;;;;;;;;7375042;19;20027;-80
2023/03/17 15:41:33;;;;;;;6.57;2.05;;;;;;;;;;7372252;19;20460;-80
2023/03/17 15:43:58;;;;;;;8.83;2.37;;;;;;;;;;7372448;19;20391;-82
2023/03/17 15:46:26;;;;;;;11.20;2.20;;;;;;;;;;7375440;19;20018;-81
2023/03/17 15:48:51;;;;;;;8.43;1.85;;;;;;;;;;7369535;19;20003;-80
2023/03/17 15:51:16;;;;;;;9.82;2.00;;;;;;;;;;7369364;19;20460;-81
2023/03/17 15:53:42;;;;;;;10.50;1.98;;;;;;;;;;7366079;19;20010;-82
2023/03/17 15:56:13;;;;;;;8.02;1.90;;;;;;;;;;7370190;19;20010;-80
2023/03/17 15:58:38;;;;;;;8.73;2.13;;;;;;;;;;7371389;19;20036;-80
2023/03/17 16:01:03;;;;;;;9.87;2.00;;;;;;;;;;7371652;19;20464;-83
2023/03/17 16:03:31;;;;;;;6.07;1.77;;;;;;;;;;7373806;19;20263;-82
2023/03/17 16:05:57;;;;;;;16.42;2.28;;;;;;;;;;7373449;19;20078;-82
2023/03/17 16:08:23;;;;;;;11.80;2.20;;;;;;;;;;7375453;19;20014;-81
2023/03/17 16:10:48;;;;;;;12.30;2.15;;;;;;;;;;7371030;19;20014;-81
2023/03/17 16:13:13;;;;;;;10.27;1.63;;;;;;;;;;7375884;19;20463;-81
2023/03/17 16:15:42;;;;;;;7.13;2.10;;;;;;;;;;7378806;19;20808;-81
2023/03/17 16:18:11;;;;;;;8.05;2.00;;;;;;;;;;7379617;19;20276;-81
2023/03/17 16:20:41;;;;;;;8.10;1.85;;;;;;;;;;7379677;19;20022;-81
2023/03/17 16:23:16;;;;;;;6.65;1.65;;;;;;;;;;7379046;19;20086;-80
2023/03/17 16:25:41;;;;;;;8.43;1.80;;;;;;;;;;7377685;19;20497;-80
2023/03/17 16:28:13;;;;;;;10.30;2.05;;;;;;;;;;7382190;19;20006;-81
2023/03/17 16:30:38;;;;;;;8.45;2.20;;;;;;;;;;7381071;19;20010;-85
2023/03/17 16:33:12;;;;;;;10.15;1.98;;;;;;;;;;7386290;19;20010;-81
2023/03/17 16:35:37;;;;;;;6.70;1.73;;;;;;;;;;7389570;19;20014;-81
2023/03/17 16:38:04;;;;;;;5.80;1.83;;;;;;;;;;7383949;19;20006;-80
2023/03/17 16:40:34;;;;;;;12.95;2.08;;;;;;;;;;7384890;19;20279;-81
2023/03/17 16:43:02;;;;;;;7.13;2.13;;;;;;;;;;7375285;19;20010;-83
2023/03/17 16:45:28;;;;;;;7.72;1.98;;;;;;;;;;7375604;19;20096;-80
2023/03/17 16:47:54;;;;;;;7.70;1.67;;;;;;;;;;7375573;19;20629;-81
2023/03/17 16:50:20;;;;;;;7.38;2.17;;;;;;;;;;7375924;19;20014;-80
2023/03/17 16:52:46;;;;;;;11.10;2.15;;;;;;;;;;7374470;19;20007;-81
2023/03/17 16:55:12;;;;;;;11.60;3.40;;;;;;;;;;7378832;19;20035;-81
2023/03/17 16:57:38;;;;;;;8.93;3.13;;;;;;;;;;7385383;19;20043;-81
2023/03/17 17:00:04;;;;;;;11.77;3.30;;;;;;;;;;7379427;19;20139;-80
2023/03/17 17:02:29;;;;;;;11.55;3.10;;;;;;;;;;7383630;19;20436;-82
2023/03/17 17:04:54;;;;;;;12.63;3.63;;;;;;;;;;7380098;19;20018;-80
2023/03/17 17:07:19;;;;;;;12.97;3.80;;;;;;;;;;7381529;19;20263;-80
2023/03/17 17:09:45;;;;;;;6.95;2.15;;;;;;;;;;7359254;19;20014;-83
2023/03/17 17:12:10;;;;;;;4.75;1.60;;;;;;;;;;7376555;19;20006;-82
2023/03/17 17:14:35;;;;;;;10.03;2.50;;;;;;;;;;7373660;19;20113;-84
2023/03/17 17:17:01;;;;;;;6.35;1.67;;;;;;;;;;7374040;19;20401;-83
2023/03/17 17:19:26;;;;;;;7.38;1.85;;;;;;;;;;7378412;19;20344;-82
2023/03/17 17:21:51;;;;;;;9.97;2.07;;;;;;;;;;7373822;19;20002;-84
2023/03/17 17:24:16;;;;;;;7.32;2.30;;;;;;;;;;7366407;19;20521;-81
2023/03/17 17:26:41;;;;;;;9.73;2.10;;;;;;;;;;7368373;19;20619;-82
2023/03/17 17:29:06;;;;;;;8.07;1.70;;;;;;;;;;7371423;19;20918;-81
2023/03/17 17:31:32;;;;;;;7.57;1.90;;;;;;;;;;7382187;19;20025;-81
2023/03/17 17:33:57;;;;;;;10.53;2.13;;;;;;;;;;7379368;19;20766;-80
2023/03/17 17:36:24;;;;;;;14.20;2.17;;;;;;;;;;7371806;19;20637;-80
2023/03/17 17:38:50;;;;;;;6.35;1.65;;;;;;;;;;7377779;19;20011;-82
2023/03/17 17:41:15;;;;;;;13.13;2.35;;;;;;;;;;7372155;19;20014;-81
2023/03/17 17:43:41;;;;;;;7.97;2.03;;;;;;;;;;7383125;19;20034;-81
2023/03/17 17:46:15;;;;;;;10.60;2.20;;;;;;;;;;7376858;19;20292;-81
2023/03/17 17:48:40;;;;;;;5.22;1.90;;;;;;;;;;7371054;19;20010;-81
2023/03/17 17:51:05;;;;;;;8.00;1.90;;;;;;;;;;7373849;19;20614;-81
2023/03/17 17:53:30;;;;;;;6.90;1.87;;;;;;;;;;7366913;19;20078;-81
2023/03/17 17:55:56;;;;;;;7.82;2.13;;;;;;;;;;7359431;19;20251;-82
2023/03/17 17:58:23;;;;;;;11.43;2.15;;;;;;;;;;7374120;19;20404;-81
2023/03/17 18:00:49;;;;;;;8.25;2.00;;;;;;;;;;7373172;19;20645;-82
2023/03/17 18:03:14;;;;;;;13.13;2.72;;;;;;;;;;7365942;19;20022;-81
2023/03/17 18:05:39;;;;;;;8.60;2.38;;;;;;;;;;7365966;19;20003;-84
2023/03/17 18:08:05;;;;;;;8.80;2.30;;;;;;;;;;7367103;19;20647;-81
2023/03/17 18:10:30;;;;;;;10.43;3.35;;;;;;;;;;7364352;19;20736;-84
2023/03/17 18:12:56;;;;;;;11.07;2.95;;;;;;;;;;7373444;19;20018;-84
2023/03/17 18:15:22;;;;;;;8.18;2.92;;;;;;;;;;7376979;19;20051;-82
2023/03/17 18:17:47;;;;;;;8.52;2.63;;;;;;;;;;7370354;19;20083;-82
2023/03/17 18:20:13;;;;;;;7.82;2.10;;;;;;;;;;7377538;19;20059;-78
2023/03/17 18:22:38;;;;;;;10.60;2.22;;;;;;;;;;7370349;19;20155;-80
2023/03/17 18:25:05;;;;;;;6.97;2.00;;;;;;;;;;7367818;19;21507;-79
2023/03/17 18:27:30;;;;;;;10.32;2.47;;;;;;;;;;7373878;19;20010;-79
2023/03/17 18:29:57;;;;;;;8.48;2.20;;;;;;;;;;7371429;19;20038;-78
2023/03/17 18:32:23;;;;;;;9.30;2.20;;;;;;;;;;7373455;19;20059;-78
2023/03/17 18:34:49;;;;;;;7.80;2.40;;;;;;;;;;7366988;19;20505;-78
2023/03/17 18:37:15;;;;;;;7.80;1.98;;;;;;;;;;7371881;19;20007;-79
2023/03/17 18:39:41;;;;;;;9.23;2.30;;;;;;;;;;7365225;19;20439;-79
2023/03/17 18:42:07;;;;;;;8.73;2.05;;;;;;;;;;7365840;19;20037;-78
2023/03/17 18:44:32;;;;;;;8.88;2.50;;;;;;;;;;7369041;19;20006;-78
2023/03/17 18:46:57;;;;;;;8.00;2.60;;;;;;;;;;7374649;19;20014;-77
2023/03/17 18:49:24;;;;;;;9.52;2.53;;;;;;;;;;7373194;19;20261;-78
2023/03/17 18:51:49;;;;;;;8.20;2.10;;;;;;;;;;7366780;19;20027;-80
2023/03/17 18:54:15;;;;;;;8.27;2.42;;;;;;;;;;7368630;19;20366;-80
2023/03/17 18:56:40;;;;;;;9.18;2.20;;;;;;;;;;7368777;19;20027;-79
2023/03/17 18:59:05;;;;;;;6.25;2.25;;;;;;;;;;7375154;19;20014;-79
2023/03/17 19:01:30;;;;;;;9.40;2.40;;;;;;;;;;7372013;19;20107;-78
2023/03/17 19:03:55;;;;;;;11.67;2.70;;;;;;;;;;7375270;19;20086;-79
2023/03/17 19:06:21;;;;;;;8.87;2.43;;;;;;;;;;7365127;19;20275;-78
2023/03/17 19:08:47;;;;;;;12.07;2.80;;;;;;;;;;7371617;19;20286;-79
2023/03/17 19:11:14;;;;;;;6.80;2.42;;;;;;;;;;7366095;19;20011;-78
2023/03/17 19:13:40;;;;;;;10.85;2.80;;;;;;;;;;7365087;19;20633;-79
2023/03/17 19:16:09;;;;;;;11.25;2.80;;;;;;;;;;7371282;19;20025;-80
2023/03/17 19:18:35;;;;;;;11.32;3.25;;;;;;;;;;7375705;19;20082;-79
2023/03/17 19:21:01;;;;;;;12.95;3.20;;;;;;;;;;7370490;19;20027;-78
2023/03/17 19:23:26;;;;;;;11.25;3.70;;;;;;;;;;7374988;19;20314;-82
2023/03/17 19:25:52;;;;;;;10.68;3.35;;;;;;;;;;7369192;19;20003;-80
2023/03/17 19:28:17;;;;;;;8.77;3.30;;;;;;;;;;7377697;19;20376;-77
2023/03/17 19:30:43;;;;;;;11.93;3.80;;;;;;;;;;7356660;19;20017;-78
2023/03/17 19:33:09;;;;;;;9.68;3.03;;;;;;;;;;7374424;19;20512;-78
2023/03/17 19:35:34;;;;;;;17.23;5.28;;;;;;;;;;7360788;19;20014;-79
2023/03/17 19:38:00;;;;;;;13.50;4.35;;;;;;;;;;7357466;19;20074;-80
2023/03/17 19:40:25;;;;;;;15.40;4.20;;;;;;;;;;7360491;19;20010;-80
2023/03/17 19:42:50;;;;;;;11.32;3.38;;;;;;;;;;7338863;19;20452;-79
2023/03/17 19:45:15;;;;;;;11.60;3.00;;;;;;;;;;7363660;19;20527;-79
2023/03/17 19:47:41;;;;;;;10.27;2.75;;;;;;;;;;7369428;19;20438;-78
2023/03/17 19:50:06;;;;;;;10.52;3.40;;;;;;;;;;7365497;19;20333;-80
2023/03/17 19:52:32;;;;;;;9.23;2.60;;;;;;;;;;7363708;19;20327;-78
2023/03/17 19:54:57;;;;;;;8.60;2.90;;;;;;;;;;7363710;19;20032;-81
2023/03/17 19:57:22;;;;;;;9.68;3.03;;;;;;;;;;7370895;19;20882;-78
2023/03/17 19:59:47;;;;;;;12.50;3.08;;;;;;;;;;7375476;19;20460;-81
2023/03/17 20:02:14;;;;;;;10.55;4.15;;;;;;;;;;7368768;19;19998;-78
2023/03/17 20:04:39;;;;;;;8.05;3.47;;;;;;;;;;7349872;19;20107;-81
2023/03/17 20:07:04;;;;;;;10.23;3.80;;;;;;;;;;7357114;19;20019;-81
2023/03/17 20:09:30;;;;;;;15.65;4.55;;;;;;;;;;7361103;19;20029;-80
2023/03/17 20:11:56;;;;;;;13.57;4.40;;;;;;;;;;7369437;19;20091;-81
2023/03/17 20:14:21;;;;;;;9.60;3.78;;;;;;;;;;7373149;19;20125;-80
2023/03/17 20:16:47;;;;;;;16.25;4.15;;;;;;;;;;7365394;19;20003;-81
2023/03/17 20:19:12;;;;;;;10.30;3.83;;;;;;;;;;7368014;19;20014;-81
2023/03/17 20:21:38;;;;;;;8.73;3.40;;;;;;;;;;7375337;19;20014;-81
2023/03/17 20:24:04;;;;;;;11.65;3.83;;;;;;;;;;7371675;19;20022;-81
2023/03/17 20:26:29;;;;;;;12.85;3.88;;;;;;;;;;7370180;19;20104;-80
2023/03/17 20:28:54;;;;;;;12.90;3.60;;;;;;;;;;7367997;19;20014;-80
2023/03/17 20:31:19;;;;;;;12.85;3.40;;;;;;;;;;7374945;19;20113;-80
2023/03/17 20:33:45;;;;;;;10.48;3.25;;;;;;;;;;7371009;19;20543;-81
2023/03/17 20:36:11;;;;;;;16.23;4.00;;;;;;;;;;7349958;19;20010;-81
2023/03/17 20:38:37;;;;;;;16.33;3.88;;;;;;;;;;7366779;19;20072;-80
2023/03/17 20:41:13;;;;;;;18.13;4.10;;;;;;;;;;7363042;19;20699;-80
2023/03/17 20:43:39;;;;;;;13.65;3.67;;;;;;;;;;7366533;19;21640;-80
2023/03/17 20:46:07;;;;;;;17.35;3.40;;;;;;;;;;7365633;19;20023;-81
2023/03/17 20:48:33;;;;;;;8.55;3.40;;;;;;;;;;7374246;19;20033;-81
2023/03/17 20:50:59;;;;;;;13.02;4.10;;;;;;;;;;7366144;19;20037;-81
2023/03/17 20:53:24;;;;;;;17.52;3.75;;;;;;;;;;7366138;19;20018;-81
2023/03/17 20:55:50;;;;;;;13.40;4.03;;;;;;;;;;7361478;19;20914;-81
2023/03/17 20:58:15;;;;;;;16.15;3.90;;;;;;;;;;7369185;19;20036;-81
2023/03/17 21:00:40;;;;;;;8.80;3.70;;;;;;;;;;7362190;19;20032;-81
2023/03/17 21:03:05;;;;;;;15.38;4.00;;;;;;;;;;7355578;19;20292;-80
2023/03/17 21:05:31;;;;;;;11.45;4.15;;;;;;;;;;7362827;19;20011;-80
2023/03/17 21:07:56;;;;;;;16.50;4.70;;;;;;;;;;7363934;19;20147;-80
2023/03/17 21:10:21;;;;;;;16.95;4.43;;;;;;;;;;7367221;19;20460;-81
2023/03/17 21:12:47;;;;;;;12.40;5.07;;;;;;;;;;7364054;19;20322;-81
2023/03/17 21:15:12;;;;;;;11.63;4.38;;;;;;;;;;7362953;19;20022;-81
